sensor_id;sensor_type;location;lat;lon;timestamp;P1;durP1;ratioP1;P2;durP2;ratioP2
948;SDS011;461;51.436;7.312;2024-02-28T00:04:15;39.23;;;17.30;;
948;SDS011;461;51.436;7.312;2024-02-28T00:06:41;27.97;;;16.03;;
948;SDS011;461;51.436;7.312;2024-02-28T00:09:07;33.53;;;16.37;;
948;SDS011;461;51.436;7.312;2024-02-28T00:11:33;43.13;;;18.97;;
948;SDS011;461;51.436;7.312;2024-02-28T00:13:58;28.00;;;15.17;;
948;SDS011;461;51.436;7.312;2024-02-28T00:16:27;34.03;;;17.17;;
948;SDS011;461;51.436;7.312;2024-02-28T00:18:53;36.60;;;18.03;;
948;SDS011;461;51.436;7.312;2024-02-28T00:21:20;66.63;;;18.53;;
948;SDS011;461;51.436;7.312;2024-02-28T00:23:46;50.30;;;13.77;;
948;SDS011;461;51.436;7.312;2024-02-28T00:26:12;88.70;;;16.43;;
948;SDS011;461;51.436;7.312;2024-02-28T00:28:38;48.40;;;16.30;;
948;SDS011;461;51.436;7.312;2024-02-28T00:31:03;148.07;;;19.30;;
948;SDS011;461;51.436;7.312;2024-02-28T00:33:29;215.73;;;23.50;;
948;SDS011;461;51.436;7.312;2024-02-28T00:35:55;72.57;;;15.13;;
948;SDS011;461;51.436;7.312;2024-02-28T00:38:20;122.53;;;20.37;;
948;SDS011;461;51.436;7.312;2024-02-28T00:40:47;93.47;;;15.70;;
948;SDS011;461;51.436;7.312;2024-02-28T00:43:12;101.83;;;18.67;;
948;SDS011;461;51.436;7.312;2024-02-28T00:45:38;56.80;;;16.27;;
948;SDS011;461;51.436;7.312;2024-02-28T00:48:04;94.83;;;16.73;;
948;SDS011;461;51.436;7.312;2024-02-28T00:50:30;86.50;;;16.63;;
948;SDS011;461;51.436;7.312;2024-02-28T00:52:56;140.77;;;18.33;;
948;SDS011;461;51.436;7.312;2024-02-28T00:55:22;146.13;;;18.77;;
948;SDS011;461;51.436;7.312;2024-02-28T00:57:47;118.63;;;20.63;;
948;SDS011;461;51.436;7.312;2024-02-28T01:00:13;89.60;;;18.30;;
948;SDS011;461;51.436;7.312;2024-02-28T01:02:39;46.53;;;16.53;;
948;SDS011;461;51.436;7.312;2024-02-28T01:05:06;35.53;;;15.77;;
948;SDS011;461;51.436;7.312;2024-02-28T01:07:33;34.57;;;16.83;;
948;SDS011;461;51.436;7.312;2024-02-28T01:09:58;33.40;;;16.83;;
948;SDS011;461;51.436;7.312;2024-02-28T01:12:24;34.97;;;18.17;;
948;SDS011;461;51.436;7.312;2024-02-28T01:14:50;38.17;;;19.43;;
948;SDS011;461;51.436;7.312;2024-02-28T01:17:16;46.00;;;17.87;;
948;SDS011;461;51.436;7.312;2024-02-28T01:19:41;48.17;;;16.57;;
948;SDS011;461;51.436;7.312;2024-02-28T01:22:07;118.13;;;21.00;;
948;SDS011;461;51.436;7.312;2024-02-28T01:24:34;73.30;;;19.20;;
948;SDS011;461;51.436;7.312;2024-02-28T01:27:00;83.13;;;18.70;;
948;SDS011;461;51.436;7.312;2024-02-28T01:29:25;55.87;;;17.80;;
948;SDS011;461;51.436;7.312;2024-02-28T01:31:51;29.43;;;15.00;;
948;SDS011;461;51.436;7.312;2024-02-28T01:34:17;54.50;;;17.83;;
948;SDS011;461;51.436;7.312;2024-02-28T01:36:43;61.30;;;17.33;;
948;SDS011;461;51.436;7.312;2024-02-28T01:39:09;59.67;;;19.10;;
948;SDS011;461;51.436;7.312;2024-02-28T01:41:35;27.23;;;14.97;;
948;SDS011;461;51.436;7.312;2024-02-28T01:44:01;77.70;;;17.73;;
948;SDS011;461;51.436;7.312;2024-02-28T01:46:27;102.60;;;19.20;;
948;SDS011;461;51.436;7.312;2024-02-28T01:48:53;152.93;;;22.13;;
948;SDS011;461;51.436;7.312;2024-02-28T01:51:21;67.60;;;18.80;;
948;SDS011;461;51.436;7.312;2024-02-28T01:53:48;109.27;;;21.60;;
948;SDS011;461;51.436;7.312;2024-02-28T01:56:16;46.27;;;16.43;;
948;SDS011;461;51.436;7.312;2024-02-28T01:58:45;41.73;;;17.67;;
948;SDS011;461;51.436;7.312;2024-02-28T02:01:15;72.70;;;17.03;;
948;SDS011;461;51.436;7.312;2024-02-28T02:03:43;54.77;;;17.57;;
948;SDS011;461;51.436;7.312;2024-02-28T02:06:09;48.13;;;17.17;;
948;SDS011;461;51.436;7.312;2024-02-28T02:08:36;114.43;;;22.53;;
948;SDS011;461;51.436;7.312;2024-02-28T02:11:02;180.50;;;22.70;;
948;SDS011;461;51.436;7.312;2024-02-28T02:13:28;201.60;;;29.90;;
948;SDS011;461;51.436;7.312;2024-02-28T02:15:54;81.00;;;18.03;;
948;SDS011;461;51.436;7.312;2024-02-28T02:18:20;113.47;;;20.00;;
948;SDS011;461;51.436;7.312;2024-02-28T02:20:46;205.70;;;26.17;;
948;SDS011;461;51.436;7.312;2024-02-28T02:23:19;175.20;;;21.73;;
948;SDS011;461;51.436;7.312;2024-02-28T02:25:45;88.37;;;18.50;;
948;SDS011;461;51.436;7.312;2024-02-28T02:28:12;60.73;;;19.37;;
948;SDS011;461;51.436;7.312;2024-02-28T02:30:38;128.23;;;17.87;;
948;SDS011;461;51.436;7.312;2024-02-28T02:33:05;147.57;;;20.80;;
948;SDS011;461;51.436;7.312;2024-02-28T02:35:31;165.80;;;22.07;;
948;SDS011;461;51.436;7.312;2024-02-28T02:37:58;54.37;;;17.13;;
948;SDS011;461;51.436;7.312;2024-02-28T02:40:23;47.27;;;17.47;;
948;SDS011;461;51.436;7.312;2024-02-28T02:42:49;38.40;;;18.17;;
948;SDS011;461;51.436;7.312;2024-02-28T02:45:16;41.83;;;17.30;;
948;SDS011;461;51.436;7.312;2024-02-28T02:47:42;298.07;;;32.10;;
948;SDS011;461;51.436;7.312;2024-02-28T02:50:09;69.97;;;19.27;;
948;SDS011;461;51.436;7.312;2024-02-28T02:52:35;103.00;;;19.40;;
948;SDS011;461;51.436;7.312;2024-02-28T02:55:01;64.13;;;18.90;;
948;SDS011;461;51.436;7.312;2024-02-28T02:57:27;55.53;;;18.70;;
948;SDS011;461;51.436;7.312;2024-02-28T02:59:55;33.67;;;16.77;;
948;SDS011;461;51.436;7.312;2024-02-28T03:02:21;24.43;;;14.27;;
948;SDS011;461;51.436;7.312;2024-02-28T03:04:47;78.27;;;21.27;;
948;SDS011;461;51.436;7.312;2024-02-28T03:07:13;59.87;;;19.03;;
948;SDS011;461;51.436;7.312;2024-02-28T03:09:39;38.50;;;18.07;;
948;SDS011;461;51.436;7.312;2024-02-28T03:12:04;43.53;;;19.07;;
948;SDS011;461;51.436;7.312;2024-02-28T03:14:30;69.13;;;21.07;;
948;SDS011;461;51.436;7.312;2024-02-28T03:16:56;44.23;;;18.10;;
948;SDS011;461;51.436;7.312;2024-02-28T03:19:22;69.17;;;20.37;;
948;SDS011;461;51.436;7.312;2024-02-28T03:21:48;37.07;;;16.67;;
948;SDS011;461;51.436;7.312;2024-02-28T03:24:14;57.07;;;19.70;;
948;SDS011;461;51.436;7.312;2024-02-28T03:26:40;72.93;;;20.70;;
948;SDS011;461;51.436;7.312;2024-02-28T03:29:05;44.87;;;22.87;;
948;SDS011;461;51.436;7.312;2024-02-28T03:31:31;104.37;;;24.43;;
948;SDS011;461;51.436;7.312;2024-02-28T03:33:57;142.80;;;26.57;;
948;SDS011;461;51.436;7.312;2024-02-28T03:36:23;69.57;;;21.60;;
948;SDS011;461;51.436;7.312;2024-02-28T03:38:48;181.20;;;26.47;;
948;SDS011;461;51.436;7.312;2024-02-28T03:41:14;72.60;;;23.20;;
948;SDS011;461;51.436;7.312;2024-02-28T03:43:40;94.33;;;25.40;;
948;SDS011;461;51.436;7.312;2024-02-28T03:46:06;135.37;;;25.67;;
948;SDS011;461;51.436;7.312;2024-02-28T03:48:31;168.60;;;28.40;;
948;SDS011;461;51.436;7.312;2024-02-28T03:50:57;77.40;;;27.10;;
948;SDS011;461;51.436;7.312;2024-02-28T03:53:23;133.73;;;27.67;;
948;SDS011;461;51.436;7.312;2024-02-28T03:55:48;93.10;;;26.93;;
948;SDS011;461;51.436;7.312;2024-02-28T03:58:15;142.87;;;26.37;;
948;SDS011;461;51.436;7.312;2024-02-28T04:00:41;111.30;;;26.57;;
948;SDS011;461;51.436;7.312;2024-02-28T04:03:09;105.93;;;26.03;;
948;SDS011;461;51.436;7.312;2024-02-28T04:05:35;137.17;;;28.57;;
948;SDS011;461;51.436;7.312;2024-02-28T04:08:01;93.70;;;24.47;;
948;SDS011;461;51.436;7.312;2024-02-28T04:10:26;134.00;;;26.90;;
948;SDS011;461;51.436;7.312;2024-02-28T04:12:52;165.13;;;27.97;;
948;SDS011;461;51.436;7.312;2024-02-28T04:15:18;78.10;;;23.60;;
948;SDS011;461;51.436;7.312;2024-02-28T04:17:43;55.93;;;22.10;;
948;SDS011;461;51.436;7.312;2024-02-28T04:20:10;103.37;;;25.50;;
948;SDS011;461;51.436;7.312;2024-02-28T04:22:36;109.00;;;24.97;;
948;SDS011;461;51.436;7.312;2024-02-28T04:25:04;75.77;;;24.57;;
948;SDS011;461;51.436;7.312;2024-02-28T04:27:30;150.03;;;27.40;;
948;SDS011;461;51.436;7.312;2024-02-28T04:29:56;57.43;;;21.27;;
948;SDS011;461;51.436;7.312;2024-02-28T04:32:21;105.40;;;25.80;;
948;SDS011;461;51.436;7.312;2024-02-28T04:34:47;116.57;;;27.43;;
948;SDS011;461;51.436;7.312;2024-02-28T04:37:13;90.77;;;26.13;;
948;SDS011;461;51.436;7.312;2024-02-28T04:39:39;55.50;;;22.93;;
948;SDS011;461;51.436;7.312;2024-02-28T04:42:05;112.50;;;28.17;;
948;SDS011;461;51.436;7.312;2024-02-28T04:44:31;77.17;;;24.50;;
948;SDS011;461;51.436;7.312;2024-02-28T04:46:57;113.97;;;27.63;;
948;SDS011;461;51.436;7.312;2024-02-28T04:49:23;60.63;;;26.30;;
948;SDS011;461;51.436;7.312;2024-02-28T04:51:48;72.23;;;27.30;;
948;SDS011;461;51.436;7.312;2024-02-28T04:54:14;63.77;;;25.77;;
948;SDS011;461;51.436;7.312;2024-02-28T04:56:40;70.70;;;25.67;;
948;SDS011;461;51.436;7.312;2024-02-28T04:59:07;63.67;;;27.57;;
948;SDS011;461;51.436;7.312;2024-02-28T05:01:41;66.93;;;26.30;;
948;SDS011;461;51.436;7.312;2024-02-28T05:04:08;65.47;;;25.17;;
948;SDS011;461;51.436;7.312;2024-02-28T05:06:34;59.03;;;23.23;;
948;SDS011;461;51.436;7.312;2024-02-28T05:09:00;67.27;;;27.97;;
948;SDS011;461;51.436;7.312;2024-02-28T05:11:26;75.93;;;29.93;;
948;SDS011;461;51.436;7.312;2024-02-28T05:13:52;68.53;;;28.50;;
948;SDS011;461;51.436;7.312;2024-02-28T05:16:18;67.70;;;27.50;;
948;SDS011;461;51.436;7.312;2024-02-28T05:18:44;68.43;;;28.07;;
948;SDS011;461;51.436;7.312;2024-02-28T05:21:10;79.37;;;29.83;;
948;SDS011;461;51.436;7.312;2024-02-28T05:23:36;71.63;;;27.97;;
948;SDS011;461;51.436;7.312;2024-02-28T05:26:02;60.70;;;25.17;;
948;SDS011;461;51.436;7.312;2024-02-28T05:28:35;63.83;;;27.37;;
948;SDS011;461;51.436;7.312;2024-02-28T05:33:45;82.77;;;30.23;;
948;SDS011;461;51.436;7.312;2024-02-28T05:36:11;80.23;;;30.77;;
948;SDS011;461;51.436;7.312;2024-02-28T05:38:36;70.27;;;27.07;;
948;SDS011;461;51.436;7.312;2024-02-28T05:41:02;62.30;;;28.30;;
948;SDS011;461;51.436;7.312;2024-02-28T05:43:28;69.87;;;29.83;;
948;SDS011;461;51.436;7.312;2024-02-28T05:45:54;74.00;;;28.47;;
948;SDS011;461;51.436;7.312;2024-02-28T05:48:19;85.03;;;30.73;;
948;SDS011;461;51.436;7.312;2024-02-28T05:50:45;73.83;;;29.40;;
948;SDS011;461;51.436;7.312;2024-02-28T05:53:11;73.93;;;32.03;;
948;SDS011;461;51.436;7.312;2024-02-28T05:55:37;65.13;;;30.50;;
948;SDS011;461;51.436;7.312;2024-02-28T05:58:03;70.57;;;29.80;;
948;SDS011;461;51.436;7.312;2024-02-28T06:00:28;82.23;;;30.93;;
948;SDS011;461;51.436;7.312;2024-02-28T06:02:54;76.57;;;30.80;;
948;SDS011;461;51.436;7.312;2024-02-28T06:05:20;63.53;;;25.67;;
948;SDS011;461;51.436;7.312;2024-02-28T06:07:45;67.50;;;31.80;;
948;SDS011;461;51.436;7.312;2024-02-28T06:10:11;75.67;;;32.57;;
948;SDS011;461;51.436;7.312;2024-02-28T06:12:37;72.67;;;31.60;;
948;SDS011;461;51.436;7.312;2024-02-28T06:15:03;83.50;;;31.80;;
948;SDS011;461;51.436;7.312;2024-02-28T06:17:29;75.50;;;30.03;;
948;SDS011;461;51.436;7.312;2024-02-28T06:19:55;73.33;;;31.73;;
948;SDS011;461;51.436;7.312;2024-02-28T06:22:21;85.00;;;32.30;;
948;SDS011;461;51.436;7.312;2024-02-28T06:24:47;66.67;;;28.10;;
948;SDS011;461;51.436;7.312;2024-02-28T06:27:12;67.47;;;33.17;;
948;SDS011;461;51.436;7.312;2024-02-28T06:29:39;72.50;;;29.90;;
948;SDS011;461;51.436;7.312;2024-02-28T06:32:05;75.00;;;31.60;;
948;SDS011;461;51.436;7.312;2024-02-28T06:34:31;69.30;;;28.67;;
948;SDS011;461;51.436;7.312;2024-02-28T06:36:57;83.27;;;33.17;;
948;SDS011;461;51.436;7.312;2024-02-28T06:39:22;72.40;;;29.03;;
948;SDS011;461;51.436;7.312;2024-02-28T06:41:48;70.03;;;30.27;;
948;SDS011;461;51.436;7.312;2024-02-28T06:44:20;72.07;;;28.70;;
948;SDS011;461;51.436;7.312;2024-02-28T06:46:45;78.90;;;29.97;;
948;SDS011;461;51.436;7.312;2024-02-28T06:49:11;75.63;;;32.57;;
948;SDS011;461;51.436;7.312;2024-02-28T06:51:37;69.83;;;28.70;;
948;SDS011;461;51.436;7.312;2024-02-28T06:54:03;67.50;;;31.20;;
948;SDS011;461;51.436;7.312;2024-02-28T06:56:30;73.53;;;30.80;;
948;SDS011;461;51.436;7.312;2024-02-28T06:58:56;63.93;;;28.83;;
948;SDS011;461;51.436;7.312;2024-02-28T07:01:22;77.70;;;30.07;;
948;SDS011;461;51.436;7.312;2024-02-28T13:03:50;33.30;;;19.33;;
948;SDS011;461;51.436;7.312;2024-02-28T13:06:16;32.23;;;18.50;;
948;SDS011;461;51.436;7.312;2024-02-28T13:08:42;26.50;;;17.63;;
948;SDS011;461;51.436;7.312;2024-02-28T13:11:09;29.53;;;17.40;;
948;SDS011;461;51.436;7.312;2024-02-28T13:13:37;31.00;;;18.67;;
948;SDS011;461;51.436;7.312;2024-02-28T13:16:03;29.00;;;17.53;;
948;SDS011;461;51.436;7.312;2024-02-28T13:18:36;41.17;;;22.10;;
948;SDS011;461;51.436;7.312;2024-02-28T13:21:02;31.73;;;18.40;;
948;SDS011;461;51.436;7.312;2024-02-28T13:23:30;29.60;;;19.00;;
948;SDS011;461;51.436;7.312;2024-02-28T13:25:56;37.80;;;19.80;;
948;SDS011;461;51.436;7.312;2024-02-28T13:28:22;31.03;;;18.80;;
948;SDS011;461;51.436;7.312;2024-02-28T13:30:57;32.13;;;19.57;;
948;SDS011;461;51.436;7.312;2024-02-28T13:33:24;30.93;;;17.43;;
948;SDS011;461;51.436;7.312;2024-02-28T13:35:50;28.33;;;17.00;;
948;SDS011;461;51.436;7.312;2024-02-28T13:38:16;30.27;;;19.47;;
948;SDS011;461;51.436;7.312;2024-02-28T13:40:44;39.73;;;20.30;;
948;SDS011;461;51.436;7.312;2024-02-28T13:43:11;36.00;;;19.67;;
948;SDS011;461;51.436;7.312;2024-02-28T13:45:45;37.93;;;21.20;;
948;SDS011;461;51.436;7.312;2024-02-28T13:48:16;36.17;;;20.00;;
948;SDS011;461;51.436;7.312;2024-02-28T13:50:43;41.67;;;21.63;;
948;SDS011;461;51.436;7.312;2024-02-28T13:53:09;36.63;;;20.40;;
948;SDS011;461;51.436;7.312;2024-02-28T13:55:36;33.00;;;20.33;;
948;SDS011;461;51.436;7.312;2024-02-28T13:58:03;40.47;;;20.77;;
948;SDS011;461;51.436;7.312;2024-02-28T14:00:30;36.73;;;19.70;;
948;SDS011;461;51.436;7.312;2024-02-28T14:02:56;33.37;;;19.37;;
948;SDS011;461;51.436;7.312;2024-02-28T14:05:22;30.30;;;18.03;;
948;SDS011;461;51.436;7.312;2024-02-28T14:07:48;33.00;;;19.73;;
948;SDS011;461;51.436;7.312;2024-02-28T14:10:14;38.07;;;19.60;;
948;SDS011;461;51.436;7.312;2024-02-28T14:12:41;34.73;;;19.87;;
948;SDS011;461;51.436;7.312;2024-02-28T14:15:07;34.20;;;18.23;;
948;SDS011;461;51.436;7.312;2024-02-28T14:17:36;32.90;;;17.90;;
948;SDS011;461;51.436;7.312;2024-02-28T14:20:02;36.40;;;19.90;;
948;SDS011;461;51.436;7.312;2024-02-28T14:22:29;33.27;;;18.87;;
948;SDS011;461;51.436;7.312;2024-02-28T14:24:55;34.17;;;17.70;;
948;SDS011;461;51.436;7.312;2024-02-28T14:27:21;32.47;;;17.83;;
948;SDS011;461;51.436;7.312;2024-02-28T14:29:47;28.83;;;16.40;;
948;SDS011;461;51.436;7.312;2024-02-28T14:32:16;29.43;;;16.73;;
948;SDS011;461;51.436;7.312;2024-02-28T14:34:42;29.70;;;16.90;;
948;SDS011;461;51.436;7.312;2024-02-28T14:37:08;31.93;;;19.07;;
948;SDS011;461;51.436;7.312;2024-02-28T14:39:34;33.63;;;16.40;;
948;SDS011;461;51.436;7.312;2024-02-28T14:42:02;36.73;;;18.50;;
948;SDS011;461;51.436;7.312;2024-02-28T14:44:28;35.40;;;16.77;;
948;SDS011;461;51.436;7.312;2024-02-28T14:46:54;29.53;;;15.97;;
948;SDS011;461;51.436;7.312;2024-02-28T14:49:22;30.33;;;17.47;;
948;SDS011;461;51.436;7.312;2024-02-28T14:51:48;30.70;;;17.33;;
948;SDS011;461;51.436;7.312;2024-02-28T14:54:15;30.43;;;15.93;;
948;SDS011;461;51.436;7.312;2024-02-28T14:56:42;31.73;;;17.03;;
948;SDS011;461;51.436;7.312;2024-02-28T14:59:08;27.30;;;16.20;;
948;SDS011;461;51.436;7.312;2024-02-28T15:01:35;31.80;;;17.03;;
948;SDS011;461;51.436;7.312;2024-02-28T15:04:01;30.80;;;17.10;;
948;SDS011;461;51.436;7.312;2024-02-28T15:06:27;26.50;;;15.43;;
948;SDS011;461;51.436;7.312;2024-02-28T15:08:53;24.17;;;15.57;;
948;SDS011;461;51.436;7.312;2024-02-28T15:11:20;27.40;;;16.17;;
948;SDS011;461;51.436;7.312;2024-02-28T15:13:46;31.63;;;17.23;;
948;SDS011;461;51.436;7.312;2024-02-28T15:16:13;31.13;;;16.90;;
948;SDS011;461;51.436;7.312;2024-02-28T15:18:39;29.83;;;17.20;;
948;SDS011;461;51.436;7.312;2024-02-28T15:21:06;27.47;;;16.17;;
948;SDS011;461;51.436;7.312;2024-02-28T15:23:32;27.73;;;16.20;;
948;SDS011;461;51.436;7.312;2024-02-28T15:25:58;27.93;;;15.67;;
948;SDS011;461;51.436;7.312;2024-02-28T15:28:24;26.47;;;15.50;;
948;SDS011;461;51.436;7.312;2024-02-28T15:30:51;28.10;;;17.23;;
948;SDS011;461;51.436;7.312;2024-02-28T15:33:18;29.63;;;17.07;;
948;SDS011;461;51.436;7.312;2024-02-28T15:35:44;26.03;;;17.37;;
948;SDS011;461;51.436;7.312;2024-02-28T15:38:10;31.33;;;17.33;;
948;SDS011;461;51.436;7.312;2024-02-28T15:40:38;27.20;;;16.10;;
948;SDS011;461;51.436;7.312;2024-02-28T15:43:04;31.53;;;16.83;;
948;SDS011;461;51.436;7.312;2024-02-28T15:45:31;26.50;;;16.00;;
948;SDS011;461;51.436;7.312;2024-02-28T15:47:57;30.30;;;17.57;;
948;SDS011;461;51.436;7.312;2024-02-28T15:50:24;29.13;;;17.57;;
948;SDS011;461;51.436;7.312;2024-02-28T15:52:50;31.10;;;17.57;;
948;SDS011;461;51.436;7.312;2024-02-28T15:55:16;25.17;;;14.37;;
948;SDS011;461;51.436;7.312;2024-02-28T15:57:45;27.87;;;16.27;;
948;SDS011;461;51.436;7.312;2024-02-28T16:00:11;27.13;;;16.37;;
948;SDS011;461;51.436;7.312;2024-02-28T16:02:37;28.50;;;16.43;;
948;SDS011;461;51.436;7.312;2024-02-28T16:05:03;33.23;;;16.97;;
948;SDS011;461;51.436;7.312;2024-02-28T16:07:30;24.67;;;15.57;;
948;SDS011;461;51.436;7.312;2024-02-28T16:09:56;31.50;;;16.00;;
948;SDS011;461;51.436;7.312;2024-02-28T16:12:22;31.23;;;16.70;;
948;SDS011;461;51.436;7.312;2024-02-28T16:14:48;24.30;;;14.30;;
948;SDS011;461;51.436;7.312;2024-02-28T16:17:15;24.33;;;14.47;;
948;SDS011;461;51.436;7.312;2024-02-28T16:19:41;27.17;;;15.80;;
948;SDS011;461;51.436;7.312;2024-02-28T16:22:07;28.47;;;13.70;;
948;SDS011;461;51.436;7.312;2024-02-28T16:24:34;26.30;;;15.33;;
948;SDS011;461;51.436;7.312;2024-02-28T16:27:01;22.23;;;13.80;;
948;SDS011;461;51.436;7.312;2024-02-28T16:29:27;24.57;;;12.90;;
948;SDS011;461;51.436;7.312;2024-02-28T16:31:53;29.17;;;14.20;;
948;SDS011;461;51.436;7.312;2024-02-28T16:34:19;22.50;;;14.00;;
948;SDS011;461;51.436;7.312;2024-02-28T16:36:45;24.67;;;14.27;;
948;SDS011;461;51.436;7.312;2024-02-28T16:39:11;22.27;;;13.60;;
948;SDS011;461;51.436;7.312;2024-02-28T16:41:43;25.20;;;13.20;;
948;SDS011;461;51.436;7.312;2024-02-28T16:44:09;32.27;;;16.37;;
948;SDS011;461;51.436;7.312;2024-02-28T16:46:35;31.50;;;17.07;;
948;SDS011;461;51.436;7.312;2024-02-28T16:49:01;28.50;;;16.63;;
948;SDS011;461;51.436;7.312;2024-02-28T16:51:27;27.23;;;16.13;;
948;SDS011;461;51.436;7.312;2024-02-28T16:53:53;30.73;;;18.20;;
948;SDS011;461;51.436;7.312;2024-02-28T16:56:19;28.90;;;16.57;;
948;SDS011;461;51.436;7.312;2024-02-28T16:58:45;34.20;;;17.70;;
948;SDS011;461;51.436;7.312;2024-02-28T17:01:15;35.63;;;18.17;;
948;SDS011;461;51.436;7.312;2024-02-28T17:03:42;37.83;;;18.20;;
948;SDS011;461;51.436;7.312;2024-02-28T17:06:08;36.90;;;17.50;;
948;SDS011;461;51.436;7.312;2024-02-28T17:08:34;32.60;;;18.10;;
948;SDS011;461;51.436;7.312;2024-02-28T17:11:00;38.53;;;17.77;;
948;SDS011;461;51.436;7.312;2024-02-28T17:13:27;33.50;;;18.90;;
948;SDS011;461;51.436;7.312;2024-02-28T17:15:53;34.33;;;17.60;;
948;SDS011;461;51.436;7.312;2024-02-28T17:18:22;35.90;;;18.00;;
948;SDS011;461;51.436;7.312;2024-02-28T17:20:48;34.17;;;18.53;;
948;SDS011;461;51.436;7.312;2024-02-28T17:23:14;34.20;;;17.60;;
948;SDS011;461;51.436;7.312;2024-02-28T17:25:40;39.30;;;19.00;;
948;SDS011;461;51.436;7.312;2024-02-28T17:28:06;36.43;;;19.43;;
948;SDS011;461;51.436;7.312;2024-02-28T17:30:32;35.80;;;18.50;;
948;SDS011;461;51.436;7.312;2024-02-28T17:32:59;38.53;;;19.37;;
948;SDS011;461;51.436;7.312;2024-02-28T17:35:24;34.27;;;18.50;;
948;SDS011;461;51.436;7.312;2024-02-28T17:37:50;33.33;;;18.53;;
948;SDS011;461;51.436;7.312;2024-02-28T17:40:16;34.40;;;20.10;;
948;SDS011;461;51.436;7.312;2024-02-28T17:42:43;37.67;;;18.77;;
948;SDS011;461;51.436;7.312;2024-02-28T17:45:09;34.93;;;18.10;;
948;SDS011;461;51.436;7.312;2024-02-28T17:47:35;40.20;;;19.83;;
948;SDS011;461;51.436;7.312;2024-02-28T17:50:02;35.97;;;19.33;;
948;SDS011;461;51.436;7.312;2024-02-28T17:52:29;34.00;;;18.07;;
948;SDS011;461;51.436;7.312;2024-02-28T17:54:55;35.60;;;18.20;;
948;SDS011;461;51.436;7.312;2024-02-28T17:57:20;34.77;;;18.00;;
948;SDS011;461;51.436;7.312;2024-02-28T17:59:46;34.70;;;18.00;;
948;SDS011;461;51.436;7.312;2024-02-28T18:02:12;35.40;;;18.17;;
948;SDS011;461;51.436;7.312;2024-02-28T18:04:38;34.93;;;18.33;;
948;SDS011;461;51.436;7.312;2024-02-28T18:07:04;35.70;;;18.17;;
948;SDS011;461;51.436;7.312;2024-02-28T18:09:30;31.27;;;17.07;;
948;SDS011;461;51.436;7.312;2024-02-28T18:11:57;33.63;;;17.00;;
948;SDS011;461;51.436;7.312;2024-02-28T18:14:23;33.10;;;17.03;;
948;SDS011;461;51.436;7.312;2024-02-28T18:16:49;34.13;;;17.20;;
948;SDS011;461;51.436;7.312;2024-02-28T18:19:17;31.67;;;17.37;;
948;SDS011;461;51.436;7.312;2024-02-28T18:21:43;30.90;;;15.97;;
948;SDS011;461;51.436;7.312;2024-02-28T18:24:09;34.67;;;17.23;;
948;SDS011;461;51.436;7.312;2024-02-28T18:26:35;30.90;;;16.40;;
948;SDS011;461;51.436;7.312;2024-02-28T18:29:01;31.50;;;17.17;;
948;SDS011;461;51.436;7.312;2024-02-28T18:31:26;32.57;;;17.03;;
948;SDS011;461;51.436;7.312;2024-02-28T18:33:53;32.30;;;15.60;;
948;SDS011;461;51.436;7.312;2024-02-28T18:36:18;33.93;;;16.30;;
948;SDS011;461;51.436;7.312;2024-02-28T18:38:45;30.63;;;14.87;;
948;SDS011;461;51.436;7.312;2024-02-28T18:41:11;28.67;;;14.87;;
948;SDS011;461;51.436;7.312;2024-02-28T18:43:37;29.77;;;14.90;;
948;SDS011;461;51.436;7.312;2024-02-28T18:46:06;27.83;;;16.23;;
948;SDS011;461;51.436;7.312;2024-02-28T18:48:34;29.47;;;16.00;;
948;SDS011;461;51.436;7.312;2024-02-28T18:51:01;31.33;;;15.30;;
948;SDS011;461;51.436;7.312;2024-02-28T18:53:27;31.20;;;15.57;;
948;SDS011;461;51.436;7.312;2024-02-28T18:55:53;24.13;;;14.10;;
948;SDS011;461;51.436;7.312;2024-02-28T18:58:19;35.20;;;16.87;;
948;SDS011;461;51.436;7.312;2024-02-28T19:00:44;25.70;;;15.20;;
948;SDS011;461;51.436;7.312;2024-02-28T19:03:14;26.53;;;15.13;;
948;SDS011;461;51.436;7.312;2024-02-28T19:05:42;26.63;;;14.63;;
948;SDS011;461;51.436;7.312;2024-02-28T19:08:08;27.87;;;15.93;;
948;SDS011;461;51.436;7.312;2024-02-28T19:10:34;28.67;;;15.90;;
948;SDS011;461;51.436;7.312;2024-02-28T19:13:00;29.27;;;15.23;;
948;SDS011;461;51.436;7.312;2024-02-28T19:15:27;24.27;;;14.80;;
948;SDS011;461;51.436;7.312;2024-02-28T19:17:53;27.03;;;15.03;;
948;SDS011;461;51.436;7.312;2024-02-28T19:20:18;35.00;;;15.90;;
948;SDS011;461;51.436;7.312;2024-02-28T19:22:44;26.90;;;14.13;;
948;SDS011;461;51.436;7.312;2024-02-28T19:25:10;31.60;;;16.23;;
948;SDS011;461;51.436;7.312;2024-02-28T19:27:37;34.23;;;17.33;;
948;SDS011;461;51.436;7.312;2024-02-28T19:30:03;28.00;;;16.67;;
948;SDS011;461;51.436;7.312;2024-02-28T19:32:31;36.00;;;17.50;;
948;SDS011;461;51.436;7.312;2024-02-28T19:34:56;29.73;;;14.63;;
948;SDS011;461;51.436;7.312;2024-02-28T19:37:22;31.43;;;16.40;;
948;SDS011;461;51.436;7.312;2024-02-28T19:39:48;28.93;;;16.80;;
948;SDS011;461;51.436;7.312;2024-02-28T19:42:20;28.50;;;16.23;;
948;SDS011;461;51.436;7.312;2024-02-28T19:44:48;26.80;;;15.10;;
948;SDS011;461;51.436;7.312;2024-02-28T19:47:14;26.47;;;14.97;;
948;SDS011;461;51.436;7.312;2024-02-28T19:49:39;28.73;;;16.50;;
948;SDS011;461;51.436;7.312;2024-02-28T19:52:06;27.03;;;14.63;;
948;SDS011;461;51.436;7.312;2024-02-28T19:54:32;28.33;;;15.37;;
948;SDS011;461;51.436;7.312;2024-02-28T19:56:58;27.33;;;13.53;;
948;SDS011;461;51.436;7.312;2024-02-28T19:59:24;27.33;;;14.37;;
948;SDS011;461;51.436;7.312;2024-02-28T20:01:49;24.87;;;14.60;;
948;SDS011;461;51.436;7.312;2024-02-28T20:04:15;30.30;;;14.60;;
948;SDS011;461;51.436;7.312;2024-02-28T20:06:41;24.80;;;14.67;;
948;SDS011;461;51.436;7.312;2024-02-28T20:09:11;26.33;;;13.50;;
948;SDS011;461;51.436;7.312;2024-02-28T20:11:36;23.63;;;14.47;;
948;SDS011;461;51.436;7.312;2024-02-28T20:14:05;23.10;;;13.00;;
948;SDS011;461;51.436;7.312;2024-02-28T20:16:32;22.90;;;13.40;;
948;SDS011;461;51.436;7.312;2024-02-28T20:18:58;22.90;;;12.07;;
948;SDS011;461;51.436;7.312;2024-02-28T20:21:24;25.83;;;14.00;;
948;SDS011;461;51.436;7.312;2024-02-28T20:23:50;23.20;;;12.70;;
948;SDS011;461;51.436;7.312;2024-02-28T20:26:15;22.20;;;14.33;;
948;SDS011;461;51.436;7.312;2024-02-28T20:28:41;23.77;;;13.43;;
948;SDS011;461;51.436;7.312;2024-02-28T20:31:10;20.97;;;12.27;;
948;SDS011;461;51.436;7.312;2024-02-28T20:33:35;24.03;;;13.30;;
948;SDS011;461;51.436;7.312;2024-02-28T20:36:01;23.83;;;12.27;;
948;SDS011;461;51.436;7.312;2024-02-28T20:38:27;20.10;;;12.23;;
948;SDS011;461;51.436;7.312;2024-02-28T20:40:54;20.80;;;12.10;;
948;SDS011;461;51.436;7.312;2024-02-28T20:43:24;23.90;;;12.70;;
948;SDS011;461;51.436;7.312;2024-02-28T20:45:49;20.63;;;12.07;;
948;SDS011;461;51.436;7.312;2024-02-28T20:48:15;21.43;;;12.80;;
948;SDS011;461;51.436;7.312;2024-02-28T20:50:41;23.33;;;12.77;;
948;SDS011;461;51.436;7.312;2024-02-28T20:53:07;21.27;;;12.10;;
948;SDS011;461;51.436;7.312;2024-02-28T20:55:33;20.47;;;11.90;;
948;SDS011;461;51.436;7.312;2024-02-28T20:57:59;23.20;;;9.13;;
948;SDS011;461;51.436;7.312;2024-02-28T21:00:24;19.77;;;11.20;;
948;SDS011;461;51.436;7.312;2024-02-28T21:02:50;21.30;;;10.73;;
948;SDS011;461;51.436;7.312;2024-02-28T21:05:16;20.50;;;10.80;;
948;SDS011;461;51.436;7.312;2024-02-28T21:07:42;20.70;;;11.63;;
948;SDS011;461;51.436;7.312;2024-02-28T21:10:08;18.37;;;11.00;;
948;SDS011;461;51.436;7.312;2024-02-28T21:12:34;21.10;;;11.10;;
948;SDS011;461;51.436;7.312;2024-02-28T21:15:00;21.20;;;10.97;;